Flight Track Log - Related Links

Times and Time Zones

All times are in EDT time to prevent confusion due to time zone crossing. See the SWA59 flight status page for this flight to view local times or setup timezone preferences in your user account.

Time Position Orientation Groundspeed Altitude Reporting Facility
EDT Latitude Longitude Course Direction KTS MPH feet Rate Location/Type
Wed 08:17:21 PM 38.7622 -90.3489 301° West 179 206 2,900  Level FAA TRACON
Wed 08:17:40 PM 38.7694 -90.3767 288° West 213 245 3,900 3,077 Climbing FAA TRACON
Wed 08:18:00 PM 38.7742 -90.4025 283° West 235 270 4,900 3,366 Climbing FAA TRACON
Wed 08:18:21 PM 38.7786 -90.4292 282° West 248 285 6,200 4,244 Climbing FAA TRACON
Wed 08:18:41 PM 38.7792 -90.4625 271° West 253 291 7,800 4,154 Climbing FAA TRACON
Wed 08:19:00 PM 38.7681 -90.4875 240° Southwest 263 303 8,900 3,538 Climbing FAA TRACON
Wed 08:19:20 PM 38.7503 -90.5067 220° Southwest 273 314 10,100 3,000 Climbing FAA TRACON
Wed 08:19:40 PM 38.7267 -90.5319 220° Southwest 285 328 10,900 1,610 Climbing FAA TRACON
Wed 08:20:01 PM 38.7058 -90.5539 219° Southwest 308 354 11,200 2,195 Climbing FAA TRACON
Wed 08:20:21 PM 38.6778 -90.5842 220° Southwest 341 392 12,400 3,385 Climbing FAA TRACON
Wed 08:20:40 PM 38.6544 -90.6089 220° Southwest 351 404 13,400 3,538 Climbing FAA TRACON
Wed 08:21:00 PM 38.6314 -90.6336 220° Southwest 354 407 14,700 4,050 Climbing FAA TRACON
Wed 08:21:20 PM 38.6025 -90.6642 220° Southwest 351 404 16,100 3,750 Climbing FAA TRACON
Wed 08:21:40 PM 38.5789 -90.6886 219° Southwest 353 406 17,200 2,923 Climbing FAA TRACON
Wed 08:21:59 PM 38.5561 -90.7136 221° Southwest 354 407 18,000 2,769 Climbing FAA TRACON
Wed 08:22:19 PM 38.5333 -90.7392 221° Southwest 354 407 19,000 3,366 Climbing FAA TRACON
Wed 08:22:40 PM 38.5050 -90.7711 221° Southwest 354 407 20,300 3,450 Climbing FAA TRACON
Wed 08:22:59 PM 38.4808 -90.7950 218° Southwest 356 410 21,300 3,231 Climbing FAA TRACON
Wed 08:23:19 PM 38.4575 -90.8197 220° Southwest 353 406 22,400 3,450 Climbing FAA TRACON
Wed 08:23:39 PM 38.4300 -90.8508 222° Southwest 348 400 23,600 3,220 Climbing FAA TRACON
Wed 08:24:00 PM 38.4078 -90.8753 221° Southwest 344 396 24,600 2,780 Climbing FAA TRACON
Wed 08:24:20 PM 38.3797 -90.9050 220° Southwest 341 392 25,500 2,462 Climbing FAA TRACON
Wed 08:24:39 PM 38.3569 -90.9292 220° Southwest 344 396 26,200 2,000 Climbing FAA TRACON
Wed 08:24:59 PM 38.3344 -90.9536 220° Southwest 347 399 26,800 1,650 Climbing FAA TRACON
Wed 08:25:19 PM 38.3114 -90.9781 220° Southwest 350 403 27,300 1,756 Climbing FAA TRACON
Wed 08:25:40 PM 38.2825 -91.0100 221° Southwest 357 411 28,000 1,756 Climbing FAA TRACON
Wed 08:26:00 PM 38.2600 -91.0361 222° Southwest 356 410 28,500 2,308 Climbing FAA TRACON
Wed 08:26:19 PM 38.2294 -91.0661 218° Southwest 358 412 29,500 2,615 Climbing FAA TRACON
Wed 08:26:39 PM 38.2078 -91.0922 223° Southwest 354 407 30,200 2,049 Climbing FAA TRACON
Wed 08:27:00 PM 38.1839 -91.1158 218° Southwest 352 405 30,900 2,341 Climbing FAA TRACON
Wed 08:27:20 PM 38.1561 -91.1467 221° Southwest 348 400 31,800 2,154 Climbing FAA TRACON
Wed 08:27:39 PM 38.1331 -91.1706 219° Southwest 346 398 32,300 1,692 Climbing FAA TRACON
Wed 08:27:59 PM 38.1108 -91.1950 221° Southwest 343 395 32,900 1,500 Climbing FAA TRACON
Wed 08:28:19 PM 38.0886 -91.2197 221° Southwest 344 396 33,300 1,463 Climbing FAA TRACON
Wed 08:28:40 PM 38.0600 -91.2494 219° Southwest 347 399 33,900 1,320 Climbing FAA TRACON
Wed 08:29:09 PM 38.0344 -91.3231 246° West 345 397 34,400 1,281 Climbing Kansas Center
Wed 08:30:09 PM 37.9586 -91.4031 220° Southwest 349 402 35,800 1,415 Climbing Kansas Center
Wed 08:31:12 PM 37.8844 -91.4819 220° Southwest 348 400 37,300 1,065 Climbing Kansas Center
Wed 08:32:13 PM 37.8103 -91.5592 219° Southwest 345 397 38,000 336 Climbing Kansas Center
Wed 08:33:17 PM 37.7372 -91.6364 220° Southwest 342 394 38,000  Level Kansas Center
Wed 08:34:17 PM 37.6467 -91.7289 219° Southwest 343 395 38,000  Level Kansas Center
Wed 08:35:18 PM 37.5733 -91.8058 220° Southwest 341 392 38,000  Level Kansas Center
Wed 08:36:21 PM 37.5056 -91.8886 224° Southwest 338 389 38,000  Level Kansas Center
Wed 08:37:22 PM 37.4358 -91.9700 223° Southwest 338 389 38,000  Level Kansas Center
Wed 08:38:25 PM 37.3664 -92.0514 223° Southwest 338 389 38,000  Level Kansas Center
Wed 08:39:26 PM 37.2939 -92.1350 223° Southwest 346 398 38,000  Level Kansas Center
Wed 08:40:27 PM 37.2239 -92.2181 223° Southwest 346 398 38,000  Level Kansas Center
Wed 08:41:30 PM 37.1519 -92.3019 223° Southwest 349 402 38,000  Level Kansas Center
Wed 08:42:31 PM 37.0797 -92.3856 223° Southwest 351 404 38,000  Level Kansas Center
Wed 08:43:31 PM 37.0064 -92.4683 222° Southwest 352 405 38,000  Level Kansas Center
Wed 08:44:33 PM 36.9192 -92.5694 223° Southwest 354 407 38,000  Level Kansas Center
Wed 08:45:36 PM 36.8461 -92.6517 222° Southwest 353 406 38,000  Level Kansas Center
Wed 08:46:09 PM 36.8036 -92.7019 223° Southwest 352 405 38,000  Level Memphis Center
Wed 08:47:09 PM 36.7311 -92.7853 223° Southwest 352 405 38,000  Level Memphis Center
Wed 08:48:09 PM 36.6608 -92.8686 224° Southwest 357 411 38,000  Level Memphis Center
Wed 08:49:09 PM 36.5842 -92.9489 220° Southwest 357 411 38,000  Level Memphis Center
Wed 08:50:09 PM 36.5200 -93.0217 222° Southwest 357 411 38,000  Level Memphis Center
Wed 08:51:09 PM 36.4453 -93.1044 222° Southwest 357 411 38,000  Level Memphis Center
Wed 08:52:09 PM 36.3725 -93.1869 222° Southwest 357 411 38,000  Level Memphis Center
Wed 08:53:09 PM 36.2978 -93.2694 222° Southwest 352 405 38,000  Level Memphis Center
Wed 08:54:09 PM 36.2250 -93.3517 222° Southwest 352 405 38,000  Level Memphis Center
Wed 08:55:09 PM 36.1519 -93.4314 221° Southwest 352 405 38,000  Level Memphis Center
Wed 08:56:09 PM 36.0792 -93.5133 222° Southwest 352 405 38,000  Level Memphis Center
Wed 08:57:09 PM 36.0061 -93.5950 222° Southwest 358 412 38,000  Level Memphis Center
Wed 08:58:09 PM 35.9331 -93.6769 222° Southwest 358 412 38,000  Level Memphis Center
Wed 08:59:09 PM 35.8558 -93.7583 221° Southwest 358 412 38,000  Level Memphis Center
Wed 09:00:09 PM 35.7828 -93.8397 222° Southwest 358 412 38,000  Level Memphis Center
Wed 09:01:09 PM 35.7072 -93.9233 222° Southwest 358 412 38,000  Level Memphis Center
Wed 09:02:09 PM 35.6319 -94.0044 221° Southwest 358 412 38,000  Level Memphis Center
Wed 09:03:09 PM 35.5586 -94.0881 223° Southwest 358 412 38,000  Level Memphis Center
Wed 09:04:09 PM 35.4789 -94.1686 219° Southwest 363 418 38,000  Level Memphis Center
Wed 09:05:09 PM 35.4097 -94.2494 224° Southwest 363 418 38,000  Level Memphis Center
Wed 09:06:09 PM 35.3319 -94.3325 221° Southwest 363 418 38,000  Level Memphis Center
Wed 09:07:09 PM 35.2586 -94.4128 222° Southwest 363 418 38,000  Level Memphis Center
Wed 09:08:09 PM 35.1828 -94.4931 221° Southwest 363 418 38,000  Level Memphis Center
Wed 09:09:30 PM 35.0769 -94.6153 223° Southwest 370 426 38,000  Level Fort Center
Wed 09:10:30 PM 35.0014 -94.6964 221° Southwest 370 426 38,000  Level Fort Center
Wed 09:11:30 PM 34.9261 -94.7772 221° Southwest 365 420 38,000  Level Fort Center
Wed 09:12:30 PM 34.8525 -94.8581 222° Southwest 360 414 38,000 -900 Level Fort Center
Wed 09:13:30 PM 34.7728 -94.9389 220° Southwest 360 414 36,200 -2,100 Descending Fort Center
Wed 09:14:30 PM 34.6972 -95.0217 222° Southwest 365 420 33,800 -2,400 Descending Fort Center
Wed 09:15:30 PM 34.6194 -95.1072 222° Southwest 365 420 31,400 -2,380 Descending Fort Center
Wed 09:16:31 PM 34.5356 -95.1950 221° Southwest 386 444 29,000 -2,400 Descending Fort Center
Wed 09:17:30 PM 34.4494 -95.2831 220° Southwest 399 459 26,600 -1,700 Descending Fort Center
Wed 09:18:31 PM 34.3656 -95.3731 222° Southwest 404 465 25,600 -1,041 Descending Fort Center
Wed 09:19:31 PM 34.2792 -95.4631 221° Southwest 411 473 24,500 -1,059 Descending Fort Center
Wed 09:20:30 PM 34.1950 -95.5503 221° Southwest 411 473 23,500 -958 Descending Fort Center
Wed 09:21:30 PM 34.1125 -95.6225 216° Southwest 405 466 22,600 -744 Descending Fort Center
Wed 09:22:31 PM 34.0303 -95.6967 217° Southwest 394 453 22,000 -300 Descending Fort Center
Wed 09:23:30 PM 33.9475 -95.7661 215° Southwest 374 430 22,000 -504 Level Fort Center
Wed 09:24:30 PM 33.8631 -95.8350 214° Southwest 374 430 21,000 -1,339 Descending Fort Center
Wed 09:25:31 PM 33.7761 -95.9042 213° Southwest 374 430 19,300 -2,100 Descending Fort Center
Wed 09:26:30 PM 33.6872 -95.9806 216° Southwest 374 430 16,800 -2,471 Descending Fort Center
Wed 09:27:30 PM 33.6169 -96.0417 216° Southwest 368 423 14,400 -2,267 Descending Fort Center
Wed 09:29:00 PM 33.5485 -96.1987 242° Southwest  Level FlightAware
Wed 09:29:30 PM 33.4619 -96.1711 242° Southwest 346 398 10,000  Level Fort Center
Wed 09:30:30 PM 33.3894 -96.2292 214° Southwest 311 358 10,000 -298 Level Fort Center
Wed 09:31:31 PM 33.3356 -96.2747 215° Southwest 276 318 9,400 -500 Descending Fort Center
Wed 09:32:30 PM 33.2692 -96.3303 215° Southwest 271 312 9,000 -504 Descending Fort Center
Wed 09:33:30 PM 33.2281 -96.3903 231° Southwest 266 306 8,400 -1,339 Descending Fort Center
Wed 09:34:31 PM 33.1783 -96.4678 233° Southwest 266 306 6,300 -1,650 Descending Fort Center
Wed 09:35:30 PM 33.1161 -96.5006 204° Southwest 272 313 5,100 -655 Descending Fort Center
Wed 09:36:30 PM 33.0347 -96.5289 196° South 277 319 5,000 -200 Descending Fort Center
Wed 09:37:30 PM 32.9744 -96.5642 206° Southwest 277 319 4,700 -750 Descending Fort Center
Wed 09:38:30 PM 32.9122 -96.6289 221° Southwest 270 311 3,500 -981 Descending Fort Center
Wed 09:39:14 PM 32.8667 -96.6667 215° Southwest 257 296 3,000 -400 Descending Dallas TRACON
Wed 09:40:15 PM 32.8167 -96.7167 220° Southwest 226 260 2,800 -397 Descending Dallas TRACON
Wed 09:41:15 PM 32.7833 -96.7667 232° Southwest 185 213 2,200 -694 Descending Dallas TRACON
Wed 09:42:16 PM 32.8000 -96.8000 301° West 143 165 1,400 -787 Descending Dallas TRACON
Wed 09:45:00 PM 32.8333 -96.8500 278° West  Level FlightAware

Login

Don't have an account? Register now (free) for customized features, flight alerts, and more!